sensor_id;sensor_type;location;lat;lon;timestamp;pressure;altitude;pressure_sealevel;temperature;humidity
45941;BME280;31858;46.008;8.978;2023-08-07T00:07:25;94222.81;;;17.76;30.41
45941;BME280;31858;46.008;8.978;2023-08-07T00:17:27;94221.81;;;17.70;30.48
45941;BME280;31858;46.008;8.978;2023-08-07T00:27:30;94223.13;;;17.61;31.07
45941;BME280;31858;46.008;8.978;2023-08-07T00:37:31;94214.91;;;17.52;30.51
45941;BME280;31858;46.008;8.978;2023-08-07T00:47:34;94231.81;;;17.53;30.53
45941;BME280;31858;46.008;8.978;2023-08-07T00:57:38;94225.00;;;17.48;30.31
45941;BME280;31858;46.008;8.978;2023-08-07T01:07:41;94221.47;;;17.35;30.36
45941;BME280;31858;46.008;8.978;2023-08-07T01:17:43;94226.09;;;17.35;30.44
45941;BME280;31858;46.008;8.978;2023-08-07T01:27:52;94224.25;;;17.32;30.71
45941;BME280;31858;46.008;8.978;2023-08-07T01:37:57;94234.34;;;17.27;30.69
45941;BME280;31858;46.008;8.978;2023-08-07T01:48:01;94244.19;;;17.18;30.61
45941;BME280;31858;46.008;8.978;2023-08-07T01:58:03;94248.22;;;17.10;31.24
45941;BME280;31858;46.008;8.978;2023-08-07T02:08:06;94258.97;;;16.93;30.54
45941;BME280;31858;46.008;8.978;2023-08-07T02:18:07;94250.56;;;16.91;30.91
45941;BME280;31858;46.008;8.978;2023-08-07T02:28:10;94255.28;;;16.87;32.12
45941;BME280;31858;46.008;8.978;2023-08-07T02:38:12;94248.53;;;16.79;31.52
45941;BME280;31858;46.008;8.978;2023-08-07T02:48:15;94246.16;;;16.65;32.82
45941;BME280;31858;46.008;8.978;2023-08-07T02:58:17;94238.53;;;16.60;32.52
45941;BME280;31858;46.008;8.978;2023-08-07T03:08:20;94240.13;;;16.57;33.94
45941;BME280;31858;46.008;8.978;2023-08-07T03:18:22;94229.94;;;16.29;33.98
45941;BME280;31858;46.008;8.978;2023-08-07T03:28:25;94227.94;;;16.13;34.23
45941;BME280;31858;46.008;8.978;2023-08-07T03:38:26;94239.88;;;15.92;34.85
45941;BME280;31858;46.008;8.978;2023-08-07T03:48:29;94237.19;;;15.92;34.98
45941;BME280;31858;46.008;8.978;2023-08-07T03:58:31;94246.06;;;15.89;35.27
45941;BME280;31858;46.008;8.978;2023-08-07T04:08:34;94248.47;;;15.84;35.46
45941;BME280;31858;46.008;8.978;2023-08-07T04:18:35;94249.84;;;15.92;35.69
45941;BME280;31858;46.008;8.978;2023-08-07T04:28:38;94250.03;;;15.81;36.23
45941;BME280;31858;46.008;8.978;2023-08-07T04:38:40;94249.88;;;15.69;36.71
45941;BME280;31858;46.008;8.978;2023-08-07T04:48:43;94251.25;;;15.57;37.15
45941;BME280;31858;46.008;8.978;2023-08-07T04:58:44;94254.63;;;15.61;37.72
45941;BME280;31858;46.008;8.978;2023-08-07T05:08:47;94255.84;;;15.56;37.97
45941;BME280;31858;46.008;8.978;2023-08-07T05:18:49;94258.75;;;15.65;37.87
45941;BME280;31858;46.008;8.978;2023-08-07T05:28:52;94252.88;;;15.51;39.61
45941;BME280;31858;46.008;8.978;2023-08-07T05:38:56;94262.19;;;15.43;39.50
45941;BME280;31858;46.008;8.978;2023-08-07T05:48:59;94263.53;;;15.54;39.84
45941;BME280;31858;46.008;8.978;2023-08-07T05:59:01;94280.00;;;15.56;41.36
45941;BME280;31858;46.008;8.978;2023-08-07T06:09:04;94270.19;;;15.46;40.31
45941;BME280;31858;46.008;8.978;2023-08-07T06:19:06;94272.06;;;15.49;40.81
45941;BME280;31858;46.008;8.978;2023-08-07T06:29:10;94283.06;;;15.58;40.84
45941;BME280;31858;46.008;8.978;2023-08-07T06:39:12;94280.19;;;15.69;40.66
45941;BME280;31858;46.008;8.978;2023-08-07T06:49:14;94284.56;;;15.83;40.52
45941;BME280;31858;46.008;8.978;2023-08-07T06:59:16;94287.41;;;15.95;41.71
45941;BME280;31858;46.008;8.978;2023-08-07T07:09:19;94296.38;;;16.09;41.26
45941;BME280;31858;46.008;8.978;2023-08-07T07:19:20;94309.81;;;16.09;40.99
45941;BME280;31858;46.008;8.978;2023-08-07T07:29:23;94321.31;;;16.09;41.57
45941;BME280;31858;46.008;8.978;2023-08-07T07:39:25;94334.28;;;16.14;41.90
45941;BME280;31858;46.008;8.978;2023-08-07T07:49:28;94344.09;;;16.24;42.44
45941;BME280;31858;46.008;8.978;2023-08-07T07:59:30;94357.47;;;16.28;42.42
45941;BME280;31858;46.008;8.978;2023-08-07T08:09:33;94361.22;;;16.54;40.52
45941;BME280;31858;46.008;8.978;2023-08-07T08:19:34;94372.00;;;16.54;38.02
45941;BME280;31858;46.008;8.978;2023-08-07T08:29:41;94376.72;;;16.89;36.86
45941;BME280;31858;46.008;8.978;2023-08-07T08:39:42;94374.09;;;17.22;37.05
45941;BME280;31858;46.008;8.978;2023-08-07T08:49:47;94391.34;;;17.60;35.72
45941;BME280;31858;46.008;8.978;2023-08-07T08:59:49;94389.88;;;17.76;36.17
45941;BME280;31858;46.008;8.978;2023-08-07T09:09:53;94404.38;;;18.14;33.40
45941;BME280;31858;46.008;8.978;2023-08-07T09:19:58;94408.03;;;18.37;33.19
45941;BME280;31858;46.008;8.978;2023-08-07T09:30:01;94403.78;;;18.52;33.63
45941;BME280;31858;46.008;8.978;2023-08-07T09:40:04;94415.66;;;18.71;33.21
45941;BME280;31858;46.008;8.978;2023-08-07T09:50:15;94418.16;;;18.78;32.41
45941;BME280;31858;46.008;8.978;2023-08-07T10:00:18;94415.28;;;18.85;33.07
45941;BME280;31858;46.008;8.978;2023-08-07T10:10:23;94423.66;;;19.03;33.87
45941;BME280;31858;46.008;8.978;2023-08-07T10:20:28;94417.75;;;19.21;31.47
45941;BME280;31858;46.008;8.978;2023-08-07T10:30:32;94415.75;;;19.38;31.91
45941;BME280;31858;46.008;8.978;2023-08-07T10:40:58;94419.00;;;19.58;32.71
45941;BME280;31858;46.008;8.978;2023-08-07T10:51:04;94410.16;;;19.83;32.01
45941;BME280;31858;46.008;8.978;2023-08-07T11:01:16;94421.59;;;20.00;30.28
45941;BME280;31858;46.008;8.978;2023-08-07T11:11:19;94411.66;;;20.09;31.18
45941;BME280;31858;46.008;8.978;2023-08-07T11:21:21;94413.03;;;20.27;29.66
45941;BME280;31858;46.008;8.978;2023-08-07T11:31:24;94392.88;;;20.40;30.20
45941;BME280;31858;46.008;8.978;2023-08-07T11:41:26;94397.53;;;20.40;29.95
45941;BME280;31858;46.008;8.978;2023-08-07T11:51:29;94391.84;;;20.60;30.58
45941;BME280;31858;46.008;8.978;2023-08-07T12:01:37;94394.25;;;20.79;31.58
45941;BME280;31858;46.008;8.978;2023-08-07T12:11:42;94383.22;;;20.96;29.28
45941;BME280;31858;46.008;8.978;2023-08-07T12:21:43;94377.59;;;21.12;27.42
45941;BME280;31858;46.008;8.978;2023-08-07T12:31:46;94369.91;;;21.32;29.46
45941;BME280;31858;46.008;8.978;2023-08-07T12:41:48;94368.84;;;21.61;28.84
45941;BME280;31858;46.008;8.978;2023-08-07T12:51:51;94351.28;;;21.74;26.39
45941;BME280;31858;46.008;8.978;2023-08-07T13:01:53;94354.50;;;22.00;26.77
45941;BME280;31858;46.008;8.978;2023-08-07T13:11:56;94345.81;;;22.14;30.06
45941;BME280;31858;46.008;8.978;2023-08-07T13:21:58;94361.22;;;22.36;26.01
45941;BME280;31858;46.008;8.978;2023-08-07T13:32:02;94364.22;;;22.47;25.65
45941;BME280;31858;46.008;8.978;2023-08-07T13:42:09;94351.25;;;22.51;26.34
45941;BME280;31858;46.008;8.978;2023-08-07T13:52:12;94353.53;;;22.80;26.73
45941;BME280;31858;46.008;8.978;2023-08-07T14:02:14;94356.97;;;23.17;24.11
45941;BME280;31858;46.008;8.978;2023-08-07T14:12:17;94377.75;;;23.38;25.42
45941;BME280;31858;46.008;8.978;2023-08-07T14:22:18;94380.56;;;23.62;23.89
45941;BME280;31858;46.008;8.978;2023-08-07T14:32:23;94394.56;;;23.70;23.95
45941;BME280;31858;46.008;8.978;2023-08-07T14:42:24;94406.94;;;23.80;23.38
45941;BME280;31858;46.008;8.978;2023-08-07T14:52:27;94392.44;;;24.07;25.09
45941;BME280;31858;46.008;8.978;2023-08-07T15:02:29;94394.88;;;24.05;22.09
45941;BME280;31858;46.008;8.978;2023-08-07T15:12:32;94406.13;;;24.22;22.83
45941;BME280;31858;46.008;8.978;2023-08-07T15:22:34;94403.13;;;24.20;22.97
45941;BME280;31858;46.008;8.978;2023-08-07T15:32:36;94398.00;;;24.13;23.00
45941;BME280;31858;46.008;8.978;2023-08-07T15:42:38;94404.88;;;24.32;25.38
45941;BME280;31858;46.008;8.978;2023-08-07T15:52:46;94413.97;;;24.29;24.04
45941;BME280;31858;46.008;8.978;2023-08-07T16:02:48;94409.16;;;24.24;24.14
45941;BME280;31858;46.008;8.978;2023-08-07T16:12:51;94424.06;;;24.04;23.86
45941;BME280;31858;46.008;8.978;2023-08-07T16:22:52;94431.38;;;23.89;24.25
45941;BME280;31858;46.008;8.978;2023-08-07T16:32:55;94430.09;;;24.08;25.29
45941;BME280;31858;46.008;8.978;2023-08-07T16:42:57;94451.88;;;24.08;24.02
45941;BME280;31858;46.008;8.978;2023-08-07T16:53:00;94442.03;;;23.69;23.78
45941;BME280;31858;46.008;8.978;2023-08-07T17:03:02;94460.97;;;23.36;26.78
45941;BME280;31858;46.008;8.978;2023-08-07T17:13:05;94440.59;;;23.22;24.83
45941;BME280;31858;46.008;8.978;2023-08-07T17:23:06;94449.97;;;22.85;24.46
45941;BME280;31858;46.008;8.978;2023-08-07T17:33:09;94462.16;;;22.71;26.33
45941;BME280;31858;46.008;8.978;2023-08-07T17:43:11;94449.00;;;22.60;24.74
45941;BME280;31858;46.008;8.978;2023-08-07T17:53:14;94463.09;;;22.09;25.60
45941;BME280;31858;46.008;8.978;2023-08-07T18:03:15;94473.84;;;21.91;25.83
45941;BME280;31858;46.008;8.978;2023-08-07T18:13:18;94491.03;;;21.66;26.17
45941;BME280;31858;46.008;8.978;2023-08-07T18:23:20;94510.22;;;21.28;25.88
45941;BME280;31858;46.008;8.978;2023-08-07T18:33:23;94523.00;;;20.80;27.02
45941;BME280;31858;46.008;8.978;2023-08-07T18:43:24;94514.31;;;20.51;27.24
45941;BME280;31858;46.008;8.978;2023-08-07T18:53:27;94534.66;;;20.17;28.42
45941;BME280;31858;46.008;8.978;2023-08-07T19:03:29;94540.81;;;19.93;28.78
45941;BME280;31858;46.008;8.978;2023-08-07T19:13:32;94549.00;;;19.76;29.15
45941;BME280;31858;46.008;8.978;2023-08-07T19:23:34;94552.41;;;19.64;29.20
45941;BME280;31858;46.008;8.978;2023-08-07T19:33:37;94564.34;;;19.50;29.22
45941;BME280;31858;46.008;8.978;2023-08-07T19:43:38;94581.31;;;19.51;29.24
45941;BME280;31858;46.008;8.978;2023-08-07T19:53:43;94600.38;;;19.47;29.00
45941;BME280;31858;46.008;8.978;2023-08-07T20:03:44;94615.25;;;19.39;29.32
45941;BME280;31858;46.008;8.978;2023-08-07T20:13:47;94613.06;;;19.34;29.30
45941;BME280;31858;46.008;8.978;2023-08-07T20:23:49;94631.41;;;19.10;29.55
45941;BME280;31858;46.008;8.978;2023-08-07T20:33:52;94620.44;;;19.01;29.87
45941;BME280;31858;46.008;8.978;2023-08-07T20:43:58;94634.28;;;19.03;29.72
45941;BME280;31858;46.008;8.978;2023-08-07T20:54:01;94631.66;;;19.00;30.37
45941;BME280;31858;46.008;8.978;2023-08-07T21:04:03;94630.22;;;18.79;30.84
45941;BME280;31858;46.008;8.978;2023-08-07T21:14:06;94628.59;;;18.65;30.66
45941;BME280;31858;46.008;8.978;2023-08-07T21:24:08;94637.88;;;18.64;30.00
45941;BME280;31858;46.008;8.978;2023-08-07T21:34:13;94646.75;;;18.65;32.47
45941;BME280;31858;46.008;8.978;2023-08-07T21:44:14;94663.44;;;18.40;33.98
45941;BME280;31858;46.008;8.978;2023-08-07T21:54:17;94653.69;;;17.90;34.65
45941;BME280;31858;46.008;8.978;2023-08-07T22:04:19;94664.28;;;17.57;35.33
45941;BME280;31858;46.008;8.978;2023-08-07T22:14:22;94665.13;;;17.31;34.51
45941;BME280;31858;46.008;8.978;2023-08-07T22:24:23;94662.66;;;17.17;35.69
45941;BME280;31858;46.008;8.978;2023-08-07T22:34:26;94643.00;;;16.96;35.50
45941;BME280;31858;46.008;8.978;2023-08-07T22:44:28;94640.06;;;17.11;35.21
45941;BME280;31858;46.008;8.978;2023-08-07T22:54:31;94653.06;;;16.92;33.77
45941;BME280;31858;46.008;8.978;2023-08-07T23:04:32;94645.81;;;17.13;35.07
45941;BME280;31858;46.008;8.978;2023-08-07T23:14:35;94625.06;;;16.90;34.13
45941;BME280;31858;46.008;8.978;2023-08-07T23:24:37;94628.78;;;16.73;35.39
45941;BME280;31858;46.008;8.978;2023-08-07T23:34:40;94642.69;;;16.68;35.78
45941;BME280;31858;46.008;8.978;2023-08-07T23:44:42;94641.97;;;16.63;35.71
45941;BME280;31858;46.008;8.978;2023-08-07T23:54:44;94644.34;;;16.58;37.41
